Burnet, TX

7:24 PM CDT on June 29, 2015 (GMT -0500)
Shale Valley Ranch | | Change Station
CLOSE
Current Station
Personal Weather Station
Location: Burnet, TX
Elevation: 1539 ft
Nearby Weather Stations

Elev 1539 ft 30.83 °N, 98.28 °W | Updated 19 seconds ago

Clear
Clear
84.9 °F
Feels Like 89 °F
N
5.0
Wind Variable Wind from South
Gusts 8.0 mph

Today
High -- | Low -- °F
--% Chance of Precip.
Yesterday
High -- | Low -- °F
Precip. -- in
6:32 AM 8:39 PM
Waxing Gibbous, 95% visible
Pressure 29.91 in
Visibility 10.0 miles
Clouds Clear
Heat Index 89 °F
Dew Point 69 °F
Humidity 60%
Rainfall 0.00 in
Snow Depth Not available.
UV 2 out of 12
Pollen 2.40 out of 12
Air Quality Not available.
Flu Activity Local Activity
METAR KBMQ 292353Z AUTO 16006KT 10SM CLR 32/19 A2996 RMK AO2 SLP127 T03170189 10333 20300 56016

More Conditions Fewer Conditions

Pressure 29.91 in
Visibility 10.0 miles
Clouds Clear
Heat Index 89 °F
Dew Point 69 °F
Humidity 60%
Rainfall 0.00 in
Snow Depth Not available.
UV 2 out of 12
Pollen 2.40 out of 12
Air Quality Not available.
Flu Activity Local Activity
METAR KBMQ 292353Z AUTO 16006KT 10SM CLR 32/19 A2996 RMK AO2 SLP127 T03170189 10333 20300 56016

More Conditions Fewer Conditions

10-Day Weather Forecast

×

Almanac

Astronomy

Jun. 29, 2015 Rise Set
Actual Time
Civil Twilight
Nautical Twilight
Astronomical Twilight
Moon
Length of Visible Light
Length of Day
Tomorrow will be .
, % of the Moon is Illuminated

Today's Extremes

State Highs State Lows

Community

WunderPhotos

Upload Photos

1,833,899 photos uploaded!

WunderBlogs® & News

Nearby

Air Quality

  Air Quality AQ Index Pollutant
Not available.

Snow Depth

Station Depth Elevation

Earthquake Activity

City Distance Mag. Time & Date
Minimum magnitude displayed is 2.5.

Coastal Water Temperatures

Place Temperature

Stations

Nearby Weather Stations

Station Location Temp. Windchill Dew Point Humidity Wind Precip. Elev Updated Type